Time;durP1;ratioP1;P1;durP2;ratioP2;P2;SDS_P1;SDS_P2;PMS_P1;PMS_P2;Temp;Humidity;BMP_temperature;BMP_pressure;BME280_temperature;BME280_humidity;BME280_pressure;Samples;Min_cycle;Max_cycle;Signal;HPM_P1;HPM_P2
2021/12/13 00:02:33;;;;;;;2.17;1.05;;;23.40;35.30;;;;;;5024861;28;20044;-45
2021/12/13 00:05:05;;;;;;;1.75;0.95;;;23.40;35.30;;;;;;5025358;28;20561;-45
2021/12/13 00:07:35;;;;;;;2.58;1.17;;;23.40;35.40;;;;;;5024997;28;20026;-46
2021/12/13 00:10:19;;;;;;;1.88;1.02;;;23.40;35.30;;;;;;5025055;28;20026;-45
2021/12/13 00:12:50;;;;;;;2.38;1.17;;;23.40;35.30;;;;;;5024437;28;20029;-45
2021/12/13 00:15:25;;;;;;;1.80;0.90;;;23.30;35.40;;;;;;5008901;28;20529;-45
2021/12/13 00:17:52;;;;;;;2.03;1.00;;;23.30;35.40;;;;;;5025075;28;20512;-45
2021/12/13 00:20:52;;;;;;;2.45;1.10;;;23.30;35.40;;;;;;5025059;28;20037;-45
2021/12/13 00:23:20;;;;;;;2.35;1.20;;;23.30;35.40;;;;;;5024983;28;20112;-45
2021/12/13 00:25:49;;;;;;;1.88;0.90;;;23.30;35.40;;;;;;5025135;28;20103;-45
2021/12/13 00:28:18;;;;;;;3.10;1.20;;;23.30;35.40;;;;;;5024938;28;20029;-45
2021/12/13 00:31:01;;;;;;;2.78;1.10;;;23.30;35.40;;;;;;5024570;28;20687;-45
2021/12/13 00:33:59;;;;;;;1.63;0.95;;;23.20;35.30;;;;;;5024225;28;20045;-45
2021/12/13 00:36:34;;;;;;;1.90;1.08;;;23.20;35.30;;;;;;5024746;28;20037;-45
2021/12/13 00:39:09;;;;;;;2.30;1.08;;;23.20;35.30;;;;;;5025137;28;20022;-45
2021/12/13 00:41:36;;;;;;;2.45;1.25;;;23.20;35.30;;;;;;5024859;28;20025;-45
2021/12/13 00:44:08;;;;;;;1.67;0.85;;;23.20;35.40;;;;;;5024413;28;20018;-45
2021/12/13 00:46:37;;;;;;;1.95;1.00;;;23.10;35.40;;;;;;5024861;28;20049;-45
2021/12/13 00:49:07;;;;;;;2.55;1.38;;;23.10;35.40;;;;;;5024809;28;20021;-45
2021/12/13 00:51:39;;;;;;;2.50;1.20;;;23.10;35.40;;;;;;5043863;28;20028;-45
2021/12/13 00:54:24;;;;;;;1.80;1.00;;;23.10;35.40;;;;;;5044434;28;20622;-45
2021/12/13 00:57:07;;;;;;;2.10;1.00;;;23.10;35.30;;;;;;5027256;28;20034;-45
2021/12/13 00:59:46;;;;;;;1.90;1.05;;;23.10;35.40;;;;;;5028387;28;20056;-45
2021/12/13 01:02:40;;;;;;;1.35;0.80;;;23.10;35.30;;;;;;5028108;28;20026;-45
2021/12/13 01:05:25;;;;;;;2.38;1.20;;;23.10;35.30;;;;;;5029429;28;20040;-45
2021/12/13 01:08:13;;;;;;;2.50;1.00;;;23.10;35.40;;;;;;5027963;28;20494;-45
2021/12/13 01:10:39;;;;;;;2.00;1.08;;;23.00;35.30;;;;;;5028269;28;20491;-45
2021/12/13 01:13:37;;;;;;;1.90;1.00;;;23.00;35.30;;;;;;5028103;28;20041;-45
2021/12/13 01:19:28;;;;;;;1.70;1.00;;;23.00;35.30;;;;;;5027919;28;20072;-45
2021/12/13 01:25:45;;;;;;;1.60;0.93;;;22.90;35.30;;;;;;5028521;28;20550;-45
2021/12/13 01:28:12;;;;;;;1.90;0.93;;;22.90;36.00;;;;;;5028134;28;20025;-45
2021/12/13 01:30:48;;;;;;;2.05;1.00;;;22.90;35.30;;;;;;5027677;28;20030;-45
2021/12/13 01:33:16;;;;;;;1.40;0.82;;;22.90;35.40;;;;;;5027691;28;20056;-45
2021/12/13 01:35:45;;;;;;;1.98;0.95;;;22.90;35.40;;;;;;5027950;28;20018;-45
2021/12/13 01:38:20;;;;;;;2.67;1.20;;;22.90;35.40;;;;;;5028287;28;20060;-45
2021/12/13 01:40:51;;;;;;;2.40;1.10;;;22.90;35.40;;;;;;5027771;28;20452;-45
2021/12/13 01:43:26;;;;;;;1.98;0.95;;;22.90;35.40;;;;;;5027427;28;20048;-45
2021/12/13 01:45:54;;;;;;;2.25;1.10;;;22.80;35.30;;;;;;5020039;28;20036;-45
2021/12/13 01:48:39;;;;;;;2.20;1.00;;;22.80;35.30;;;;;;5008112;28;20026;-45
2021/12/13 01:51:11;;;;;;;1.80;0.77;;;22.80;35.30;;;;;;5037320;28;20035;-45
2021/12/13 01:53:59;;;;;;;1.65;0.77;;;22.80;35.30;;;;;;5047134;28;20055;-45
2021/12/13 01:59:29;;;;;;;2.00;0.95;;;22.80;35.40;;;;;;5027580;28;20104;-45
2021/12/13 02:02:08;;;;;;;1.73;0.90;;;22.80;35.40;;;;;;5026925;28;20117;-45
2021/12/13 02:04:35;;;;;;;1.50;0.80;;;22.80;35.40;;;;;;5026580;28;20072;-45
2021/12/13 02:07:03;;;;;;;1.88;0.93;;;22.80;35.40;;;;;;5026633;28;20036;-44
2021/12/13 02:09:49;;;;;;;1.70;1.00;;;22.80;35.40;;;;;;5025920;28;20021;-45
2021/12/13 02:12:18;;;;;;;1.88;0.80;;;22.80;35.40;;;;;;5025692;28;20127;-45
2021/12/13 02:16:56;;;;;;;1.70;1.00;;;22.70;36.00;;;;;;5026994;28;20213;-45
2021/12/13 02:17:38;;;;;;;;;;;22.70;35.50;;;;;;5007377;28;20121;-45
2021/12/13 02:20:28;;;;;;;1.65;0.90;;;22.70;35.40;;;;;;5006181;28;20387;-45
2021/12/13 02:22:55;;;;;;;2.00;1.00;;;22.70;35.40;;;;;;5004979;28;20033;-45
2021/12/13 02:25:31;;;;;;;1.52;0.88;;;22.70;35.40;;;;;;5011591;28;20026;-45
2021/12/13 02:28:11;;;;;;;1.65;0.90;;;22.70;35.40;;;;;;5026461;28;20036;-46
2021/12/13 02:31:00;;;;;;;1.80;1.00;;;22.70;35.40;;;;;;5026065;28;20037;-45
2021/12/13 02:33:32;;;;;;;2.33;1.20;;;22.70;35.40;;;;;;5024645;28;20041;-45
2021/12/13 02:36:05;;;;;;;1.65;0.93;;;22.60;35.30;;;;;;5026509;28;20500;-45
2021/12/13 02:38:30;;;;;;;;;;;22.70;35.40;;;;;;5027167;28;20522;-45
2021/12/13 02:40:57;;;;;;;2.60;1.00;;;22.60;35.40;;;;;;5026649;28;19992;-45
2021/12/13 02:43:30;;;;;;;1.42;0.85;;;22.60;35.30;;;;;;5026489;28;20034;-45
2021/12/13 02:45:58;;;;;;;1.30;0.68;;;22.60;35.40;;;;;;5026808;28;20155;-45
2021/12/13 02:48:38;;;;;;;2.10;0.98;;;22.60;35.40;;;;;;5026403;28;20040;-45
2021/12/13 02:51:27;;;;;;;1.60;0.75;;;22.60;35.40;;;;;;5040996;28;20401;-45
2021/12/13 02:54:36;;;;;;;1.88;0.90;;;22.60;35.40;;;;;;5040674;28;20022;-45
2021/12/13 02:57:11;;;;;;;1.23;0.73;;;22.60;35.40;;;;;;5042818;28;20044;-45
2021/12/13 02:59:41;;;;;;;1.30;0.60;;;22.60;35.30;;;;;;5009652;28;20100;-45
2021/12/13 03:02:27;;;;;;;1.80;1.02;;;22.60;35.40;;;;;;5020768;28;20021;-45
2021/12/13 03:04:53;;;;;;;1.40;0.70;;;22.60;35.40;;;;;;5026136;28;20456;-45
2021/12/13 03:07:30;;;;;;;1.70;0.90;;;22.60;35.40;;;;;;5025565;28;20025;-45
2021/12/13 03:09:58;;;;;;;1.77;0.98;;;22.60;35.40;;;;;;5024414;28;20516;-45
2021/12/13 03:12:27;;;;;;;2.05;0.80;;;22.60;35.40;;;;;;5025854;28;20029;-45
2021/12/13 03:14:59;;;;;;;1.42;0.82;;;22.60;35.40;;;;;;5026367;28;20405;-45
2021/12/13 03:17:28;;;;;;;1.88;0.90;;;22.60;36.10;;;;;;5025876;28;20033;-46
2021/12/13 03:20:24;;;;;;;2.10;0.77;;;22.60;35.40;;;;;;5025353;28;20029;-45
2021/12/13 03:22:50;;;;;;;3.15;1.00;;;22.60;35.40;;;;;;5025073;28;20028;-45
2021/12/13 03:26:12;;;;;;;1.40;0.75;;;22.50;35.40;;;;;;5025655;28;20029;-45
2021/12/13 03:29:18;;;;;;;0.93;0.60;;;22.50;35.40;;;;;;5022917;28;20116;-45
2021/12/13 03:31:49;;;;;;;1.40;0.80;;;22.50;35.50;;;;;;5022568;28;20144;-45
2021/12/13 03:34:35;;;;;;;1.30;0.80;;;22.50;35.50;;;;;;5008131;28;20037;-45
2021/12/13 03:37:12;;;;;;;1.27;0.75;;;22.50;35.50;;;;;;5005656;28;20038;-45
2021/12/13 03:39:46;;;;;;;1.50;0.77;;;22.50;35.50;;;;;;5005475;28;20034;-45
2021/12/13 03:42:28;;;;;;;1.38;0.73;;;22.50;36.10;;;;;;5005818;28;20335;-45
2021/12/13 03:44:58;;;;;;;1.42;0.77;;;22.50;36.20;;;;;;5018132;28;20052;-45
2021/12/13 03:47:35;;;;;;;1.38;0.68;;;22.50;35.50;;;;;;5025268;28;20503;-45
2021/12/13 03:50:09;;;;;;;1.15;0.70;;;22.50;35.60;;;;;;5031302;28;20491;-45
2021/12/13 03:52:46;;;;;;;1.88;0.90;;;22.50;35.50;;;;;;5042555;28;20105;-45
2021/12/13 03:55:16;;;;;;;1.52;0.70;;;22.50;35.50;;;;;;5025864;28;20028;-45
2021/12/13 03:57:49;;;;;;;1.73;0.80;;;22.50;35.50;;;;;;5025622;28;20034;-45
2021/12/13 04:00:19;;;;;;;1.40;0.50;;;22.50;35.50;;;;;;5025277;28;20567;-45
2021/12/13 04:02:46;;;;;;;1.45;0.75;;;22.50;35.60;;;;;;5003524;28;20760;-45
2021/12/13 04:05:15;;;;;;;1.80;0.80;;;22.50;35.50;;;;;;5005295;28;20440;-45
2021/12/13 04:07:48;;;;;;;1.42;0.68;;;22.40;35.50;;;;;;5005251;28;20033;-45
2021/12/13 04:10:26;;;;;;;1.27;0.68;;;22.40;35.50;;;;;;5005279;28;20482;-45
2021/12/13 04:12:57;;;;;;;1.80;0.80;;;22.40;36.10;;;;;;5005142;28;20398;-45
2021/12/13 04:16:00;;;;;;;0.88;0.60;;;22.40;35.50;;;;;;5020545;28;20022;-45
2021/12/13 04:21:45;;;;;;;1.77;0.90;;;22.40;35.50;;;;;;5023743;28;20043;-45
2021/12/13 04:24:39;;;;;;;1.40;0.70;;;22.40;35.50;;;;;;5024876;28;20029;-45
2021/12/13 04:27:14;;;;;;;1.65;0.80;;;22.40;35.60;;;;;;5024613;28;20030;-45
2021/12/13 04:29:41;;;;;;;1.10;0.63;;;22.30;35.50;;;;;;5024530;28;20036;-45
2021/12/13 04:32:15;;;;;;;0.98;0.50;;;22.40;35.50;;;;;;5023857;28;20037;-45
2021/12/13 04:34:42;;;;;;;1.65;0.80;;;22.30;35.50;;;;;;5024745;28;20429;-45
2021/12/13 04:37:13;;;;;;;1.15;0.45;;;22.30;35.50;;;;;;5025197;28;20025;-45
2021/12/13 04:39:42;;;;;;;1.70;0.75;;;22.30;35.50;;;;;;5024051;28;20473;-45
2021/12/13 04:42:13;;;;;;;1.23;0.70;;;22.30;35.60;;;;;;5024452;28;20033;-45
2021/12/13 04:44:53;;;;;;;1.08;0.60;;;22.30;35.60;;;;;;5024587;28;20111;-45
2021/12/13 04:47:36;;;;;;;1.00;0.47;;;22.30;35.60;;;;;;5023323;28;20036;-45
2021/12/13 04:50:09;;;;;;;1.23;0.68;;;22.30;35.60;;;;;;5030379;28;20118;-45
2021/12/13 04:52:35;;;;;;;0.75;0.40;;;22.30;35.60;;;;;;5044626;28;20025;-45
2021/12/13 04:55:08;;;;;;;0.57;0.40;;;22.30;35.60;;;;;;5041960;28;20589;-45
2021/12/13 04:57:34;;;;;;;1.27;0.50;;;22.30;35.60;;;;;;5022214;28;20029;-45
2021/12/13 05:00:08;;;;;;;1.48;0.70;;;22.30;35.60;;;;;;5023699;28;20032;-45
2021/12/13 05:02:34;;;;;;;1.35;0.60;;;22.30;35.60;;;;;;5009861;28;20490;-45
2021/12/13 05:05:03;;;;;;;0.88;0.43;;;22.30;35.60;;;;;;5004979;28;20030;-44
2021/12/13 05:07:30;;;;;;;1.02;0.50;;;22.30;35.60;;;;;;5004383;28;20026;-45
2021/12/13 05:09:58;;;;;;;1.42;0.50;;;22.20;35.80;;;;;;5004785;28;20033;-45
2021/12/13 05:12:28;;;;;;;1.33;0.70;;;22.20;35.80;;;;;;5004050;28;20518;-45
2021/12/13 05:15:10;;;;;;;1.00;0.43;;;22.30;35.90;;;;;;5003509;28;20505;-45
2021/12/13 05:17:41;;;;;;;0.67;0.37;;;22.20;35.80;;;;;;5021501;28;20048;-45
2021/12/13 05:20:30;;;;;;;1.00;0.50;;;22.20;35.80;;;;;;5024573;28;20029;-45
2021/12/13 05:23:09;;;;;;;0.80;0.35;;;22.20;36.00;;;;;;5024162;28;20029;-46
2021/12/13 05:25:41;;;;;;;1.40;0.68;;;22.20;36.00;;;;;;5024259;28;20013;-45
2021/12/13 05:28:10;;;;;;;0.63;0.40;;;22.20;36.00;;;;;;5023457;28;20493;-45
2021/12/13 05:31:02;;;;;;;1.30;0.50;;;22.30;36.20;;;;;;5023410;28;20405;-45
2021/12/13 05:33:30;;;;;;;1.10;0.40;;;22.30;36.20;;;;;;5018060;28;20110;-45
2021/12/13 05:35:59;;;;;;;1.98;0.43;;;22.30;36.20;;;;;;5023854;28;20167;-45
2021/12/13 05:38:44;;;;;;;0.73;0.40;;;22.40;36.30;;;;;;5023960;28;20022;-45
2021/12/13 05:41:13;;;;;;;1.83;0.57;;;22.50;36.40;;;;;;5024215;28;20036;-45
2021/12/13 05:43:48;;;;;;;1.45;0.70;;;22.50;36.30;;;;;;5024584;28;20025;-44
2021/12/13 05:46:24;;;;;;;1.08;0.43;;;22.50;36.30;;;;;;5027247;28;20034;-45
2021/12/13 05:49:01;;;;;;;0.70;0.40;;;22.60;36.20;;;;;;5009711;28;20026;-45
2021/12/13 05:51:36;;;;;;;0.50;0.30;;;22.60;36.10;;;;;;5043699;28;20495;-45
2021/12/13 05:54:20;;;;;;;1.25;0.55;;;22.70;36.10;;;;;;5047508;28;20057;-45
2021/12/13 05:56:57;;;;;;;0.85;0.45;;;22.80;36.00;;;;;;5030549;28;20257;-45
2021/12/13 05:59:46;;;;;;;1.13;0.40;;;22.80;35.90;;;;;;5027131;28;20079;-45
2021/12/13 06:02:17;;;;;;;1.77;0.40;;;22.90;35.90;;;;;;5013367;28;20084;-45
2021/12/13 06:05:09;;;;;;;0.40;0.25;;;23.00;35.80;;;;;;5024631;28;20033;-45
2021/12/13 06:07:38;;;;;;;1.30;0.30;;;23.10;35.80;;;;;;5037534;28;20040;-45
2021/12/13 06:10:13;;;;;;;0.50;0.38;;;23.10;35.80;;;;;;5023735;28;20025;-45
2021/12/13 06:12:47;;;;;;;1.80;0.55;;;23.20;35.80;;;;;;5027546;28;20028;-45
2021/12/13 06:15:16;;;;;;;1.23;0.45;;;23.30;35.90;;;;;;5023474;28;20036;-45
2021/12/13 06:17:57;;;;;;;3.72;0.82;;;23.30;35.90;;;;;;5020498;28;20029;-46
2021/12/13 06:20:30;;;;;;;3.90;0.70;;;23.40;36.00;;;;;;5020549;28;20032;-44
2021/12/13 06:23:08;;;;;;;2.85;0.70;;;23.40;36.20;;;;;;5022238;28;20545;-43
2021/12/13 06:25:35;;;;;;;2.92;0.70;;;23.50;36.30;;;;;;5023486;28;20079;-44
2021/12/13 06:28:03;;;;;;;3.30;0.80;;;23.50;36.50;;;;;;5026092;28;20026;-44
2021/12/13 06:30:33;;;;;;;1.15;0.32;;;23.60;36.50;;;;;;5025477;28;20029;-44
2021/12/13 06:33:04;;;;;;;3.35;0.63;;;23.70;36.70;;;;;;5024337;28;20025;-45
2021/12/13 06:35:36;;;;;;;1.75;0.68;;;23.70;36.60;;;;;;5023766;28;20029;-44
2021/12/13 06:38:24;;;;;;;1.80;0.73;;;23.80;36.70;;;;;;5025034;28;20480;-44
2021/12/13 06:40:55;;;;;;;1.25;0.40;;;23.80;36.40;;;;;;5024418;28;20532;-45
2021/12/13 06:43:32;;;;;;;2.03;0.47;;;23.90;36.40;;;;;;5025002;28;20025;-44
2021/12/13 06:46:06;;;;;;;1.70;0.57;;;23.90;36.30;;;;;;5025568;28;20068;-45
2021/12/13 06:48:44;;;;;;;1.23;0.43;;;23.90;36.10;;;;;;5023731;28;20028;-44
2021/12/13 06:51:13;;;;;;;1.45;0.65;;;24.00;36.10;;;;;;5025211;28;20456;-44
2021/12/13 06:53:40;;;;;;;2.25;0.70;;;24.00;36.10;;;;;;5023273;28;20025;-44
2021/12/13 06:56:39;;;;;;;2.60;0.50;;;24.10;36.10;;;;;;5023538;28;20030;-44
2021/12/13 06:59:08;;;;;;;3.20;0.50;;;24.10;36.10;;;;;;5050161;28;20124;-46
2021/12/13 07:01:37;;;;;;;1.33;0.63;;;24.10;36.40;;;;;;5024364;28;20033;-47
2021/12/13 07:04:08;;;;;;;1.90;0.52;;;24.10;36.60;;;;;;5023392;28;20079;-46
2021/12/13 07:06:34;;;;;;;2.15;0.50;;;24.20;36.90;;;;;;5018423;28;20030;-45
2021/12/13 07:09:08;;;;;;;2.20;0.52;;;24.20;36.70;;;;;;5019390;28;20029;-45
2021/12/13 07:11:53;;;;;;;2.20;0.57;;;24.20;36.50;;;;;;5023212;28;20026;-45
2021/12/13 07:14:30;;;;;;;2.75;0.55;;;24.20;36.20;;;;;;5024805;28;20029;-47
2021/12/13 07:16:56;;;;;;;2.35;0.47;;;24.30;36.00;;;;;;5020906;28;20356;-46
2021/12/13 07:19:24;;;;;;;1.52;0.50;;;24.30;35.90;;;;;;5024285;28;20032;-45
2021/12/13 07:21:54;;;;;;;2.75;0.80;;;24.40;35.70;;;;;;5018579;28;20032;-46
2021/12/13 07:25:02;;;;;;;1.50;0.63;;;24.40;35.70;;;;;;5036642;28;20402;-46
2021/12/13 07:27:34;;;;;;;2.10;0.60;;;24.40;35.60;;;;;;5020128;28;20021;-46
2021/12/13 07:30:06;;;;;;;;;;;24.50;35.60;;;;;;5004528;28;20038;-46
2021/12/13 07:32:40;;;;;;;3.45;0.80;;;24.50;35.40;;;;;;5020177;28;20512;-47
2021/12/13 07:35:29;;;;;;;3.03;0.85;;;24.60;35.30;;;;;;5023172;28;20045;-46
2021/12/13 07:38:03;;;;;;;2.03;0.80;;;24.60;35.10;;;;;;5021665;28;20079;-45
2021/12/13 07:40:45;;;;;;;2.13;0.90;;;24.60;35.10;;;;;;5023671;28;20029;-46
2021/12/13 07:43:23;;;;;;;2.05;0.65;;;24.70;35.00;;;;;;5020586;28;20017;-46
2021/12/13 07:46:12;;;;;;;2.20;0.60;;;24.70;35.00;;;;;;5022960;28;20029;-47
2021/12/13 07:48:40;;;;;;;2.03;0.80;;;24.70;35.00;;;;;;5023380;28;20032;-47
2021/12/13 07:51:15;;;;;;;1.13;0.50;;;24.80;34.90;;;;;;5025091;28;20036;-46
2021/12/13 07:53:56;;;;;;;1.95;0.50;;;24.80;34.80;;;;;;5020821;28;20033;-45
2021/12/13 07:56:33;;;;;;;1.80;0.50;;;24.80;34.80;;;;;;5024228;28;20061;-46
2021/12/13 07:59:08;;;;;;;1.90;0.47;;;24.90;34.80;;;;;;5022549;28;20071;-46
2021/12/13 08:02:08;;;;;;;0.90;0.47;;;24.90;34.70;;;;;;5023400;28;20037;-47
2021/12/13 08:04:55;;;;;;;1.35;0.43;;;24.90;34.70;;;;;;5021481;28;20105;-46
2021/12/13 08:07:23;;;;;;;0.90;0.30;;;25.00;34.50;;;;;;5033328;28;20116;-47
2021/12/13 08:09:58;;;;;;;1.25;0.40;;;25.00;34.50;;;;;;5022909;28;20049;-46
2021/12/13 08:12:29;;;;;;;2.25;0.65;;;25.00;34.40;;;;;;5020994;28;20109;-45
2021/12/13 08:15:19;;;;;;;2.17;0.88;;;25.00;34.30;;;;;;5038405;28;20041;-46
2021/12/13 08:17:55;;;;;;;2.20;0.50;;;25.10;34.30;;;;;;5023995;28;20049;-46
2021/12/13 08:20:24;;;;;;;1.00;0.40;;;25.10;34.20;;;;;;5023651;28;20029;-47
2021/12/13 08:22:50;;;;;;;1.35;0.50;;;25.10;34.20;;;;;;5021940;28;20021;-45
2021/12/13 08:25:26;;;;;;;1.05;0.45;;;25.10;34.00;;;;;;5022609;28;20112;-46
2021/12/13 08:28:17;;;;;;;0.88;0.40;;;25.20;34.00;;;;;;5021893;28;20091;-47
2021/12/13 08:30:45;;;;;;;1.33;0.40;;;25.20;34.00;;;;;;5023176;28;20057;-48
2021/12/13 08:33:30;;;;;;;1.10;0.57;;;25.20;34.00;;;;;;5023132;28;20029;-46
2021/12/13 08:36:01;;;;;;;0.90;0.40;;;25.30;34.00;;;;;;5024386;28;20036;-45
2021/12/13 08:38:35;;;;;;;1.25;0.47;;;25.30;33.90;;;;;;5024150;28;20033;-47
2021/12/13 08:41:18;;;;;;;1.75;0.65;;;25.30;33.80;;;;;;5024288;28;20068;-47
2021/12/13 08:43:58;;;;;;;2.22;0.90;;;25.40;33.90;;;;;;5023890;28;20084;-45
2021/12/13 08:46:40;;;;;;;3.28;0.60;;;25.30;33.80;;;;;;5004757;28;20022;-47
2021/12/13 08:49:33;;;;;;;0.20;0.20;;;25.40;33.80;;;;;;5004489;28;20507;-47
2021/12/13 08:52:24;;;;;;;1.73;0.45;;;25.40;33.70;;;;;;5004542;28;20121;-46
2021/12/13 08:55:19;;;;;;;1.58;0.35;;;25.50;33.70;;;;;;5021468;28;20043;-47
2021/12/13 08:57:59;;;;;;;1.60;0.60;;;25.50;33.60;;;;;;5012518;28;20116;-46
2021/12/13 09:00:43;;;;;;;1.83;0.40;;;25.50;33.60;;;;;;5003090;28;20040;-46
2021/12/13 09:03:11;;;;;;;0.50;0.25;;;25.50;33.70;;;;;;5021191;28;20034;-47
2021/12/13 09:05:59;;;;;;;0.77;0.30;;;25.50;33.60;;;;;;5024373;28;20025;-46
2021/12/13 09:08:43;;;;;;;0.80;0.47;;;25.50;33.60;;;;;;5024035;28;20029;-46
2021/12/13 09:11:33;;;;;;;1.02;0.50;;;25.60;33.50;;;;;;5023516;28;20045;-46
2021/12/13 09:14:07;;;;;;;1.60;0.50;;;25.60;33.50;;;;;;5023915;28;20031;-45
2021/12/13 09:16:56;;;;;;;0.80;0.30;;;25.60;33.50;;;;;;5022746;28;20030;-46
2021/12/13 09:19:31;;;;;;;1.05;0.40;;;25.60;33.50;;;;;;5024935;28;20112;-47
2021/12/13 09:22:01;;;;;;;0.85;0.30;;;25.60;33.50;;;;;;5027333;28;20443;-47
2021/12/13 09:24:39;;;;;;;2.05;0.50;;;25.60;33.50;;;;;;5028170;28;20091;-47
2021/12/13 09:27:17;;;;;;;1.15;0.43;;;25.70;33.50;;;;;;5027431;28;20124;-46
2021/12/13 09:29:49;;;;;;;1.95;0.60;;;25.60;33.40;;;;;;5027740;28;20565;-46
2021/12/13 09:32:15;;;;;;;1.98;0.38;;;25.60;33.40;;;;;;5026665;28;20056;-46
2021/12/13 09:34:41;;;;;;;0.65;0.40;;;25.60;33.40;;;;;;5027594;28;20160;-48
2021/12/13 09:37:08;;;;;;;0.47;0.30;;;25.60;33.30;;;;;;5025645;28;20029;-47
2021/12/13 09:39:34;;;;;;;1.58;0.50;;;25.70;33.30;;;;;;5027358;28;20052;-45
2021/12/13 09:42:05;;;;;;;2.45;0.47;;;25.70;33.30;;;;;;5026917;28;20037;-45
2021/12/13 09:44:49;;;;;;;3.30;0.57;;;25.70;33.20;;;;;;5026894;28;20116;-46
2021/12/13 09:47:31;;;;;;;1.08;0.47;;;25.70;33.10;;;;;;5027204;28;20017;-46
2021/12/13 09:49:57;;;;;;;0.82;0.30;;;25.70;33.20;;;;;;5032931;28;20493;-47
2021/12/13 09:52:41;;;;;;;0.75;0.38;;;25.70;33.20;;;;;;5042372;28;20036;-46
2021/12/13 09:55:13;;;;;;;1.65;0.63;;;25.70;33.20;;;;;;5019178;28;20034;-47
2021/12/13 09:58:08;;;;;;;2.05;0.50;;;25.70;33.20;;;;;;5015723;28;20034;-47
2021/12/13 10:00:51;;;;;;;1.48;0.52;;;25.70;33.20;;;;;;5016701;28;20166;-45
2021/12/13 10:03:30;;;;;;;0.98;0.40;;;25.70;33.20;;;;;;5014475;28;20025;-46
2021/12/13 10:05:59;;;;;;;1.35;0.63;;;25.70;33.10;;;;;;5022988;28;20026;-46
2021/12/13 10:08:50;;;;;;;1.85;0.85;;;25.70;33.20;;;;;;5021232;28;20092;-46
2021/12/13 10:11:25;;;;;;;1.30;0.50;;;25.70;33.20;;;;;;5009932;28;20030;-46
2021/12/13 10:13:52;;;;;;;0.60;0.30;;;25.70;33.10;;;;;;5010871;28;20712;-45
2021/12/13 10:16:22;;;;;;;1.38;0.40;;;25.70;33.20;;;;;;5025492;28;20059;-46
2021/12/13 10:18:50;;;;;;;0.98;0.40;;;25.70;33.10;;;;;;5006986;28;20030;-46
2021/12/13 10:21:18;;;;;;;1.10;0.40;;;25.70;33.10;;;;;;5006601;28;20036;-47
2021/12/13 10:24:03;;;;;;;0.60;0.40;;;25.70;33.10;;;;;;5006434;28;20025;-46
2021/12/13 10:26:36;;;;;;;1.95;0.40;;;25.70;33.10;;;;;;5021810;28;20021;-46
2021/12/13 10:29:06;;;;;;;1.33;0.55;;;25.70;33.00;;;;;;5025522;28;20052;-46
2021/12/13 10:31:40;;;;;;;1.15;0.47;;;25.70;33.20;;;;;;5021015;28;20033;-46
2021/12/13 10:34:10;;;;;;;1.95;0.60;;;25.70;33.40;;;;;;5025241;28;20107;-46
2021/12/13 10:36:40;;;;;;;1.63;0.50;;;25.70;33.50;;;;;;5019208;28;20045;-46
2021/12/13 10:39:12;;;;;;;1.05;0.50;;;25.70;33.50;;;;;;5020210;28;20064;-46
2021/12/13 10:41:43;;;;;;;0.95;0.32;;;25.70;33.70;;;;;;5019603;28;20109;-46
2021/12/13 10:44:13;;;;;;;1.48;0.50;;;25.70;33.60;;;;;;5015913;28;20080;-47
2021/12/13 10:46:44;;;;;;;1.75;0.50;;;25.70;33.70;;;;;;5014584;28;20053;-45
2021/12/13 10:49:19;;;;;;;0.93;0.40;;;25.70;33.80;;;;;;5015285;28;20289;-46
2021/12/13 10:51:54;;;;;;;2.70;0.40;;;25.70;33.90;;;;;;5014049;28;20040;-45
2021/12/13 10:54:27;;;;;;;1.30;0.32;;;25.70;33.90;;;;;;5006357;28;20041;-47
2021/12/13 10:56:55;;;;;;;;;;;25.70;33.80;;;;;;5024572;28;20219;-46
2021/12/13 10:59:24;;;;;;;1.42;0.47;;;25.70;33.80;;;;;;5025598;28;19929;-46
2021/12/13 11:01:54;;;;;;;1.73;0.65;;;25.70;33.80;;;;;;5025623;28;20510;-47
2021/12/13 11:04:34;;;;;;;1.85;0.50;;;25.70;33.80;;;;;;5025650;28;20049;-46
2021/12/13 11:07:03;;;;;;;1.48;0.60;;;25.70;33.80;;;;;;5026379;28;20124;-46
2021/12/13 11:09:28;;;;;;;2.00;0.40;;;25.70;33.80;;;;;;5025444;28;20272;-46
2021/12/13 11:12:04;;;;;;;0.98;0.40;;;25.70;33.70;;;;;;5024061;28;20116;-46
2021/12/13 11:14:32;;;;;;;1.35;0.47;;;25.70;33.70;;;;;;5025230;28;20038;-47
2021/12/13 11:17:03;;;;;;;3.55;1.08;;;25.70;33.70;;;;;;5029480;28;20037;-46
2021/12/13 11:19:32;;;;;;;2.08;0.70;;;25.70;33.60;;;;;;5026471;28;20054;-47
2021/12/13 11:22:04;;;;;;;2.28;0.50;;;25.70;34.10;;;;;;5025490;28;20045;-46
2021/12/13 11:24:33;;;;;;;1.35;0.52;;;25.70;33.70;;;;;;5022518;28;20025;-47
2021/12/13 11:27:04;;;;;;;2.22;0.50;;;25.70;33.80;;;;;;5024385;28;20437;-45
2021/12/13 11:29:32;;;;;;;2.28;0.55;;;25.70;33.70;;;;;;5025616;28;20033;-46
2021/12/13 11:32:32;;;;;;;2.05;0.70;;;25.70;33.70;;;;;;5024311;28;20561;-46
2021/12/13 11:35:04;;;;;;;1.85;0.65;;;25.70;33.70;;;;;;5024723;28;20440;-46
2021/12/13 11:37:55;;;;;;;2.58;0.70;;;25.70;33.70;;;;;;5024031;28;20045;-45
2021/12/13 11:40:27;;;;;;;2.45;0.60;;;25.70;33.70;;;;;;5024515;28;20021;-46
2021/12/13 11:43:04;;;;;;;2.57;0.90;;;25.70;33.80;;;;;;5022265;28;20029;-48
2021/12/13 11:46:06;;;;;;;2.10;0.70;;;25.60;33.70;;;;;;5021948;28;20633;-47
2021/12/13 11:49:06;;;;;;;3.55;0.90;;;25.60;33.70;;;;;;5022149;28;20533;-46
2021/12/13 11:52:06;;;;;;;1.88;0.90;;;25.60;33.60;;;;;;5023800;28;20033;-46
2021/12/13 11:54:53;;;;;;;1.92;0.38;;;25.60;33.70;;;;;;5024575;28;20025;-46
2021/12/13 11:57:56;;;;;;;1.52;0.63;;;25.60;33.60;;;;;;5020835;28;20548;-47
2021/12/13 12:00:42;;;;;;;1.73;0.73;;;25.60;33.70;;;;;;5023051;28;20270;-46
2021/12/13 12:04:01;;;;;;;1.17;0.40;;;25.60;33.70;;;;;;5023647;28;20108;-46
2021/12/13 12:07:04;;;;;;;2.45;0.90;;;25.60;33.70;;;;;;5024881;28;20040;-46
2021/12/13 12:10:08;;;;;;;4.80;1.17;;;25.50;33.70;;;;;;5027287;28;20029;-46
2021/12/13 12:12:42;;;;;;;;;;;25.50;33.90;;;;;;5020688;28;21055;-45
2021/12/13 12:15:09;;;;;;;2.13;0.50;;;25.50;33.90;;;;;;5018877;28;20341;-47
2021/12/13 12:17:36;;;;;;;1.73;0.60;;;25.50;33.90;;;;;;5021900;28;20036;-46
2021/12/13 12:20:06;;;;;;;1.83;0.52;;;25.50;34.00;;;;;;5022512;28;20101;-46
2021/12/13 12:22:56;;;;;;;1.88;0.52;;;25.50;34.00;;;;;;5021160;28;20034;-46
2021/12/13 12:25:26;;;;;;;2.22;0.90;;;25.50;34.00;;;;;;5021473;28;20021;-46
2021/12/13 12:27:57;;;;;;;2.72;0.70;;;25.50;34.10;;;;;;5022271;28;20025;-46
2021/12/13 12:30:29;;;;;;;3.17;0.60;;;25.50;34.20;;;;;;5019364;28;20037;-46
2021/12/13 12:32:58;;;;;;;2.03;0.70;;;25.50;34.20;;;;;;5024238;28;20116;-46
2021/12/13 12:35:32;;;;;;;2.83;0.60;;;25.50;34.20;;;;;;5024234;28;20029;-45
2021/12/13 12:38:02;;;;;;;2.03;0.40;;;25.50;34.10;;;;;;5024564;28;20112;-46
2021/12/13 12:40:36;;;;;;;1.45;0.50;;;25.50;34.20;;;;;;5024767;28;20112;-47
2021/12/13 12:43:16;;;;;;;0.75;0.43;;;25.50;34.10;;;;;;5024021;28;20025;-46
2021/12/13 12:45:55;;;;;;;2.85;0.80;;;25.50;34.10;;;;;;5036336;28;20481;-45
2021/12/13 12:48:36;;;;;;;0.88;0.40;;;25.50;34.10;;;;;;5017217;28;20026;-45
2021/12/13 12:51:22;;;;;;;1.95;0.90;;;25.50;34.10;;;;;;5032234;28;20422;-48
2021/12/13 12:54:15;;;;;;;1.90;0.50;;;25.50;34.10;;;;;;5023220;28;20655;-46
2021/12/13 12:56:52;;;;;;;2.15;0.50;;;25.50;34.10;;;;;;5028143;28;20068;-45
2021/12/13 12:59:26;;;;;;;2.30;0.60;;;25.50;34.10;;;;;;5028354;28;20029;-46
2021/12/13 13:01:59;;;;;;;2.03;0.50;;;25.50;34.10;;;;;;5028108;28;20294;-45
2021/12/13 13:04:40;;;;;;;1.42;0.57;;;25.50;34.10;;;;;;5039824;28;20022;-46
2021/12/13 13:07:27;;;;;;;1.67;0.50;;;25.50;34.10;;;;;;5028465;28;20390;-46
2021/12/13 13:13:10;;;;;;;1.45;0.45;;;25.50;34.00;;;;;;5027815;28;20036;-45
2021/12/13 13:15:44;;;;;;;1.73;0.50;;;25.50;34.00;;;;;;5028303;28;20040;-46
2021/12/13 13:18:13;;;;;;;1.85;0.38;;;25.50;34.00;;;;;;5014651;28;20516;-45
2021/12/13 13:20:47;;;;;;;1.58;0.50;;;25.50;34.00;;;;;;5007971;28;20743;-46
2021/12/13 13:23:15;;;;;;;0.93;0.40;;;25.50;34.00;;;;;;5007807;28;20029;-46
2021/12/13 13:26:00;;;;;;;1.48;0.47;;;25.50;34.00;;;;;;5015826;28;20126;-46
2021/12/13 13:28:37;;;;;;;1.38;0.50;;;25.50;34.00;;;;;;5026465;28;20053;-46
2021/12/13 13:31:24;;;;;;;1.90;0.32;;;25.50;33.90;;;;;;5027185;28;20060;-46
2021/12/13 13:34:15;;;;;;;1.17;0.55;;;25.50;34.00;;;;;;5023880;28;20115;-46
2021/12/13 13:37:08;;;;;;;0.85;0.30;;;25.50;34.00;;;;;;5007940;28;20038;-47
2021/12/13 13:39:42;;;;;;;3.63;0.43;;;25.50;33.90;;;;;;5008131;28;20660;-46
2021/12/13 13:42:27;;;;;;;1.38;0.60;;;25.50;33.90;;;;;;5024018;28;20044;-46
2021/12/13 13:45:21;;;;;;;1.50;0.50;;;25.50;33.90;;;;;;5026653;28;20029;-46
2021/12/13 13:47:51;;;;;;;2.15;0.80;;;25.50;33.90;;;;;;5024426;28;20173;-46
2021/12/13 13:50:25;;;;;;;1.35;0.47;;;25.50;34.10;;;;;;5026557;28;20431;-46
2021/12/13 13:52:57;;;;;;;1.10;0.52;;;25.50;34.30;;;;;;5025023;28;20665;-48
2021/12/13 13:55:28;;;;;;;2.08;0.40;;;25.50;34.10;;;;;;5022872;28;20044;-45